createdAt,value
2023-04-08T00:02:25.456Z,9.5
2023-04-08T00:04:51.560Z,9.4
2023-04-08T00:07:17.646Z,9.4
2023-04-08T00:09:42.769Z,9.4
2023-04-08T00:12:08.880Z,9.4
2023-04-08T00:14:34.983Z,9.4
2023-04-08T00:17:01.072Z,9.4
2023-04-08T00:19:27.141Z,9.4
2023-04-08T00:21:53.355Z,9.4
2023-04-08T00:24:19.342Z,9.4
2023-04-08T00:26:45.482Z,9.4
2023-04-08T00:29:11.561Z,9.4
2023-04-08T00:31:37.627Z,9.4
2023-04-08T00:34:03.751Z,9.4
2023-04-08T00:36:29.822Z,9.4
2023-04-08T00:38:55.942Z,9.4
2023-04-08T00:41:21.062Z,9.3
2023-04-08T00:43:47.136Z,9.3
2023-04-08T00:46:13.211Z,9.3
2023-04-08T00:48:39.412Z,9.3
2023-04-08T00:51:05.402Z,9.3
2023-04-08T00:53:31.491Z,9.3
2023-04-08T00:55:57.593Z,9.3
2023-04-08T00:58:23.680Z,9.2
2023-04-08T01:00:49.783Z,9.2
2023-04-08T01:03:15.887Z,9.2
2023-04-08T01:05:41.967Z,9.2
2023-04-08T01:08:08.072Z,9.2
2023-04-08T01:10:34.169Z,9.2
2023-04-08T01:12:59.332Z,9.2
2023-04-08T01:15:25.392Z,9.2
2023-04-08T01:17:51.472Z,9.2
2023-04-08T01:20:17.570Z,9.2
2023-04-08T01:22:43.669Z,9.2
2023-04-08T01:25:09.768Z,9.2
2023-04-08T01:27:35.862Z,9.2
2023-04-08T01:30:01.938Z,9.2
2023-04-08T01:32:28.039Z,9.1
2023-04-08T01:34:54.150Z,9.1
2023-04-08T01:37:20.246Z,9.1
2023-04-08T01:39:46.382Z,9.1
2023-04-08T01:42:12.426Z,9.1
2023-04-08T01:44:37.534Z,9.1
2023-04-08T01:47:03.630Z,9.1
2023-04-08T01:49:29.740Z,9.1
2023-04-08T01:51:55.832Z,9.1
2023-04-08T01:54:21.929Z,9.1
2023-04-08T01:56:48.016Z,9.1
2023-04-08T01:59:14.259Z,9
2023-04-08T02:01:40.223Z,9
2023-04-08T02:04:06.320Z,9
2023-04-08T02:06:32.400Z,9
2023-04-08T02:08:58.570Z,9
2023-04-08T02:11:24.623Z,9
2023-04-08T02:13:50.729Z,9
2023-04-08T02:16:15.801Z,9
2023-04-08T02:18:41.922Z,8.9
2023-04-08T02:21:07.998Z,8.9
2023-04-08T02:23:34.082Z,8.9
2023-04-08T02:26:00.209Z,8.9
2023-04-08T02:28:26.292Z,8.9
2023-04-08T02:30:52.393Z,8.9
2023-04-08T02:33:18.478Z,8.8
2023-04-08T02:35:44.594Z,8.8
2023-04-08T02:38:10.727Z,8.8
2023-04-08T02:40:36.768Z,8.8
2023-04-08T02:43:02.860Z,8.8
2023-04-08T02:45:28.952Z,8.8
2023-04-08T02:47:54.055Z,8.8
2023-04-08T02:50:20.177Z,8.8
2023-04-08T02:52:46.250Z,8.7
2023-04-08T02:55:12.350Z,8.7
2023-04-08T02:57:38.433Z,8.7
2023-04-08T03:00:04.529Z,8.7
2023-04-08T03:02:29.653Z,8.7
2023-04-08T03:04:55.750Z,8.7
2023-04-08T03:07:21.850Z,8.7
2023-04-08T03:09:47.939Z,8.6
2023-04-08T03:12:14.060Z,8.6
2023-04-08T03:14:40.134Z,8.6
2023-04-08T03:17:06.258Z,8.6
2023-04-08T03:19:32.330Z,8.6
2023-04-08T03:21:58.505Z,8.6
2023-04-08T03:24:24.545Z,8.6
2023-04-08T03:26:50.610Z,8.6
2023-04-08T03:29:16.738Z,8.6
2023-04-08T03:31:42.803Z,8.6
2023-04-08T03:34:07.952Z,8.5
2023-04-08T03:36:34.026Z,8.5
2023-04-08T03:39:00.134Z,8.5
2023-04-08T03:41:26.202Z,8.5
2023-04-08T03:43:52.320Z,8.5
2023-04-08T03:46:18.406Z,8.5
2023-04-08T03:48:44.509Z,8.5
2023-04-08T03:51:10.611Z,8.5
2023-04-08T03:53:36.739Z,8.4
2023-04-08T03:56:02.800Z,8.4
2023-04-08T03:58:28.879Z,8.4
2023-04-08T04:00:54.983Z,8.4
2023-04-08T04:03:21.070Z,8.4
2023-04-08T04:05:46.196Z,8.4
2023-04-08T04:08:12.333Z,8.4
2023-04-08T04:10:38.382Z,8.3
2023-04-08T04:13:04.482Z,8.3
2023-04-08T04:15:30.582Z,8.3
2023-04-08T04:17:56.799Z,8.3
2023-04-08T04:20:22.762Z,8.3
2023-04-08T04:22:48.936Z,8.3
2023-04-08T04:25:15.052Z,8.2
2023-04-08T04:27:41.126Z,8.2
2023-04-08T04:30:07.204Z,8.1
2023-04-08T04:32:33.287Z,8.1
2023-04-08T04:34:59.368Z,8.1
2023-04-08T04:37:24.470Z,8
2023-04-08T04:39:50.614Z,8
2023-04-08T04:42:16.667Z,8
2023-04-08T04:44:42.761Z,7.9
2023-04-08T04:47:08.845Z,7.9
2023-04-08T04:49:34.933Z,7.9
2023-04-08T04:52:01.073Z,7.9
2023-04-08T04:54:27.145Z,7.9
2023-04-08T04:56:53.224Z,8
2023-04-08T04:59:19.415Z,8
2023-04-08T05:01:45.407Z,8
2023-04-08T05:04:11.499Z,8
2023-04-08T05:06:37.612Z,8.1
2023-04-08T05:09:02.791Z,8.1
2023-04-08T05:11:28.838Z,8.1
2023-04-08T05:13:54.917Z,8.2
2023-04-08T05:16:21.019Z,8.2
2023-04-08T05:18:47.196Z,8.2
2023-04-08T05:21:13.193Z,8.2
2023-04-08T05:23:39.321Z,8.3
2023-04-08T05:26:05.398Z,8.3
2023-04-08T05:28:31.487Z,8.3
2023-04-08T05:30:57.589Z,8.4
2023-04-08T05:33:23.681Z,8.4
2023-04-08T05:35:49.780Z,8.4
2023-04-08T05:38:15.868Z,8.4
2023-04-08T05:40:40.985Z,8.4
2023-04-08T05:43:07.098Z,8.4
2023-04-08T05:45:33.222Z,8.5
2023-04-08T05:47:59.325Z,8.5
2023-04-08T05:50:25.374Z,8.5
2023-04-08T05:52:51.520Z,8.5
2023-04-08T05:55:17.557Z,8.5
2023-04-08T05:57:43.674Z,8.5
2023-04-08T06:00:09.833Z,8.5
2023-04-08T06:02:35.869Z,8.5
2023-04-08T06:05:01.935Z,8.5
2023-04-08T06:07:28.050Z,8.5
2023-04-08T06:09:54.200Z,8.5
2023-04-08T06:12:19.235Z,8.6
2023-04-08T06:14:45.354Z,8.6
2023-04-08T06:17:11.433Z,8.7
2023-04-08T06:19:37.590Z,8.7
2023-04-08T06:22:03.697Z,8.8
2023-04-08T06:24:29.717Z,8.8
2023-04-08T06:26:55.813Z,8.9
2023-04-08T06:29:21.923Z,8.9
2023-04-08T06:31:48.005Z,8.9
2023-04-08T06:34:14.100Z,9
2023-04-08T06:36:40.188Z,9
2023-04-08T06:39:06.291Z,9
2023-04-08T06:41:32.394Z,9.1
2023-04-08T06:43:57.508Z,9.1
2023-04-08T06:46:23.581Z,9.1
2023-04-08T06:48:49.816Z,9.2
2023-04-08T06:51:15.806Z,9.2
2023-04-08T06:53:41.969Z,9.3
2023-04-08T06:56:08.097Z,9.3
2023-04-08T06:58:34.240Z,9.4
2023-04-08T07:01:00.180Z,9.5
2023-04-08T07:03:26.264Z,9.6
2023-04-08T07:05:52.370Z,9.6
2023-04-08T07:08:18.467Z,9.7
2023-04-08T07:10:44.571Z,9.7
2023-04-08T07:13:10.653Z,9.7
2023-04-08T07:15:35.755Z,9.7
2023-04-08T07:18:01.882Z,9.7
2023-04-08T07:20:27.957Z,9.8
2023-04-08T07:22:54.064Z,9.8
2023-04-08T07:25:20.152Z,9.8
2023-04-08T07:27:46.232Z,9.9
2023-04-08T07:30:12.339Z,9.9
2023-04-08T07:32:38.492Z,9.9
2023-04-08T07:35:04.612Z,10
2023-04-08T07:37:30.621Z,10.1
2023-04-08T07:39:56.709Z,10.2
2023-04-08T07:42:22.859Z,10.3
2023-04-08T07:44:48.941Z,10.3
2023-04-08T07:47:14.040Z,10.4
2023-04-08T07:49:40.120Z,10.5
2023-04-08T07:52:06.206Z,10.5
2023-04-08T07:54:32.310Z,10.6
2023-04-08T07:56:58.493Z,10.7
2023-04-08T07:59:24.488Z,10.7
2023-04-08T08:01:50.594Z,10.8
2023-04-08T08:04:16.703Z,10.8
2023-04-08T08:06:42.807Z,10.8
2023-04-08T08:09:08.893Z,10.8
2023-04-08T08:11:34.984Z,10.8
2023-04-08T08:14:01.097Z,10.8
2023-04-08T08:16:27.169Z,10.8
2023-04-08T08:18:52.427Z,10.8
2023-04-08T08:21:18.432Z,10.9
2023-04-08T08:23:44.469Z,10.9
2023-04-08T08:26:10.583Z,11
2023-04-08T08:28:36.647Z,11.1
2023-04-08T08:31:02.745Z,11.1
2023-04-08T08:33:28.850Z,11.2
2023-04-08T08:35:55.010Z,11.3
2023-04-08T08:38:21.039Z,11.4
2023-04-08T08:40:47.126Z,11.5
2023-04-08T08:43:13.234Z,11.6
2023-04-08T08:45:39.373Z,11.7
2023-04-08T08:48:05.495Z,11.8
2023-04-08T08:50:30.534Z,11.8
2023-04-08T08:52:56.652Z,11.9
2023-04-08T08:55:22.736Z,12
2023-04-08T08:57:48.836Z,12.1
2023-04-08T09:00:14.926Z,12.1
2023-04-08T09:02:41.021Z,12.1
2023-04-08T09:05:07.175Z,12.2
2023-04-08T09:07:33.212Z,12.2
2023-04-08T09:09:59.301Z,12.3
2023-04-08T09:12:25.416Z,12.4
2023-04-08T09:14:51.503Z,12.5
2023-04-08T09:17:17.578Z,12.6
2023-04-08T09:19:43.689Z,12.7
2023-04-08T09:22:08.814Z,12.7
2023-04-08T09:24:34.992Z,12.7
2023-04-08T09:27:01.030Z,12.8
2023-04-08T09:29:27.172Z,12.8
2023-04-08T09:31:53.180Z,12.9
2023-04-08T09:34:19.330Z,13
2023-04-08T09:36:45.365Z,13
2023-04-08T09:39:11.484Z,13
2023-04-08T09:41:37.559Z,13
2023-04-08T09:44:03.718Z,13
2023-04-08T09:46:29.871Z,13.1
2023-04-08T09:48:55.855Z,13.1
2023-04-08T09:51:22.007Z,13.2
2023-04-08T09:53:47.076Z,13.3
2023-04-08T09:56:13.167Z,13.4
2023-04-08T09:58:39.262Z,13.5
2023-04-08T10:01:05.349Z,13.6
2023-04-08T10:03:31.436Z,13.7
2023-04-08T10:05:57.545Z,13.6
2023-04-08T10:08:23.649Z,13.6
2023-04-08T10:10:49.772Z,13.5
2023-04-08T10:13:15.833Z,13.5
2023-04-08T10:15:41.924Z,13.4
2023-04-08T10:18:08.044Z,13.4
2023-04-08T10:20:34.097Z,13.4
2023-04-08T10:23:00.198Z,13.3
2023-04-08T10:25:25.320Z,13.3
2023-04-08T10:27:51.416Z,13.2
2023-04-08T10:30:17.506Z,13.1
2023-04-08T10:32:43.613Z,13.1
2023-04-08T10:35:09.690Z,13
2023-04-08T10:37:35.836Z,13
2023-04-08T10:40:01.890Z,12.9
2023-04-08T10:42:27.979Z,12.9
2023-04-08T10:44:54.087Z,12.9
2023-04-08T10:47:20.163Z,13
2023-04-08T10:49:46.278Z,13
2023-04-08T10:52:12.463Z,13
2023-04-08T10:54:38.492Z,13.1
2023-04-08T10:57:03.568Z,13.2
2023-04-08T10:59:29.658Z,13.2
2023-04-08T11:01:55.775Z,13.3
2023-04-08T11:04:21.973Z,13.3
2023-04-08T11:06:48.002Z,13.3
2023-04-08T11:09:14.068Z,13.3
2023-04-08T11:11:39.153Z,13.3
2023-04-08T11:14:05.273Z,13.3
2023-04-08T11:16:31.368Z,13.2
2023-04-08T11:18:57.455Z,13.2
2023-04-08T11:21:23.559Z,13.1
2023-04-08T11:23:49.802Z,13.2
2023-04-08T11:26:15.739Z,13.2
2023-04-08T11:28:41.883Z,13.3
2023-04-08T11:31:07.933Z,13.3
2023-04-08T11:33:34.020Z,13.2
2023-04-08T11:36:00.133Z,13.2
2023-04-08T11:38:26.282Z,13.1
2023-04-08T11:40:52.341Z,13.1
2023-04-08T11:43:17.422Z,13.1
2023-04-08T11:45:43.550Z,13
2023-04-08T11:48:09.617Z,13
2023-04-08T11:50:35.717Z,12.9
2023-04-08T11:53:01.822Z,12.9
2023-04-08T11:55:27.942Z,12.8
2023-04-08T11:57:54.116Z,12.8
2023-04-08T12:00:20.089Z,12.7
2023-04-08T12:02:46.196Z,12.7
2023-04-08T12:05:12.300Z,12.7
2023-04-08T12:07:38.396Z,12.7
2023-04-08T12:10:04.480Z,12.7
2023-04-08T12:12:30.579Z,12.7
2023-04-08T12:14:55.692Z,12.7
2023-04-08T12:17:21.784Z,12.7
2023-04-08T12:19:47.879Z,12.7
2023-04-08T12:22:14.000Z,12.7
2023-04-08T12:24:40.060Z,12.7
2023-04-08T12:27:06.177Z,12.7
2023-04-08T12:29:32.323Z,12.7
2023-04-08T12:31:58.352Z,12.7
2023-04-08T12:34:24.511Z,12.7
2023-04-08T12:36:50.553Z,12.8
2023-04-08T12:39:16.650Z,12.8
2023-04-08T12:41:42.897Z,12.8
2023-04-08T12:44:08.872Z,12.8
2023-04-08T12:46:33.939Z,12.8
2023-04-08T12:49:00.049Z,12.8
2023-04-08T12:51:26.299Z,12.8
2023-04-08T12:53:52.222Z,12.8
2023-04-08T12:56:18.334Z,12.7
2023-04-08T12:58:44.425Z,12.7
2023-04-08T13:01:10.530Z,12.6
2023-04-08T13:03:36.616Z,12.6
2023-04-08T13:06:02.715Z,12.6
2023-04-08T13:08:28.801Z,12.5
2023-04-08T13:10:54.909Z,12.4
2023-04-08T13:13:21.020Z,12.4
2023-04-08T13:15:47.093Z,12.3
2023-04-08T13:18:12.215Z,12.3
2023-04-08T13:20:38.396Z,12.3
2023-04-08T13:23:04.408Z,12.4
2023-04-08T13:25:30.491Z,12.4
2023-04-08T13:27:56.598Z,12.5
2023-04-08T13:30:22.791Z,12.5
2023-04-08T13:32:48.803Z,12.6
2023-04-08T13:35:14.892Z,12.6
2023-04-08T13:37:40.965Z,12.7
2023-04-08T13:40:07.100Z,12.7
2023-04-08T13:42:33.155Z,12.7
2023-04-08T13:44:59.287Z,12.7
2023-04-08T13:47:25.430Z,12.8
2023-04-08T13:49:50.488Z,12.8
2023-04-08T13:52:16.599Z,12.9
2023-04-08T13:54:42.653Z,12.9
2023-04-08T13:57:08.784Z,12.9
2023-04-08T13:59:34.904Z,12.9
2023-04-08T14:02:00.949Z,13
2023-04-08T14:04:27.053Z,13
2023-04-08T14:06:53.130Z,13
2023-04-08T14:09:19.223Z,13
2023-04-08T14:11:45.379Z,13
2023-04-08T14:14:11.413Z,12.9
2023-04-08T14:16:37.512Z,12.9
2023-04-08T14:19:03.609Z,12.8
2023-04-08T14:21:28.712Z,12.8
2023-04-08T14:23:54.820Z,12.8
2023-04-08T14:26:20.921Z,12.8
2023-04-08T14:28:47.036Z,12.8
2023-04-08T14:31:13.105Z,12.9
2023-04-08T14:33:39.212Z,12.9
2023-04-08T14:36:05.292Z,12.9
2023-04-08T14:38:31.379Z,12.9
2023-04-08T14:40:57.484Z,12.9
2023-04-08T14:43:23.560Z,12.9
2023-04-08T14:45:49.729Z,12.9
2023-04-08T14:48:15.833Z,12.9
2023-04-08T14:50:41.860Z,13
2023-04-08T14:53:06.985Z,13
2023-04-08T14:55:33.079Z,13
2023-04-08T14:57:59.164Z,13
2023-04-08T15:00:25.254Z,13
2023-04-08T15:02:51.368Z,13
2023-04-08T15:05:17.453Z,13.1
2023-04-08T15:07:43.546Z,13.1
2023-04-08T15:10:09.637Z,13.1
2023-04-08T15:12:35.750Z,13.1
2023-04-08T15:15:01.896Z,13.1
2023-04-08T15:17:27.930Z,13
2023-04-08T15:19:54.122Z,13
2023-04-08T15:22:20.115Z,12.9
2023-04-08T15:24:45.234Z,12.8
2023-04-08T15:27:11.348Z,12.8
2023-04-08T15:29:37.442Z,12.7
2023-04-08T15:32:03.539Z,12.6
2023-04-08T15:34:29.648Z,12.5
2023-04-08T15:36:55.719Z,12.5
2023-04-08T15:39:21.850Z,12.5
2023-04-08T15:41:48.019Z,12.4
2023-04-08T15:44:14.031Z,12.4
2023-04-08T15:46:40.151Z,12.4
2023-04-08T15:49:06.234Z,12.3
2023-04-08T15:51:32.274Z,12.3
2023-04-08T15:53:58.379Z,12.3
2023-04-08T15:56:23.492Z,12.2
2023-04-08T15:58:49.606Z,12.1
2023-04-08T16:01:15.683Z,12.1
2023-04-08T16:03:41.788Z,12.1
2023-04-08T16:06:07.857Z,12
2023-04-08T16:08:33.964Z,12
2023-04-08T16:11:00.045Z,12
2023-04-08T16:13:26.155Z,12
2023-04-08T16:15:52.248Z,11.9
2023-04-08T16:18:18.350Z,11.9
2023-04-08T16:20:44.537Z,11.9
2023-04-08T16:23:10.682Z,11.8
2023-04-08T16:25:36.726Z,11.8
2023-04-08T16:28:01.866Z,11.8
2023-04-08T16:30:27.862Z,11.7
2023-04-08T16:32:54.045Z,11.7
2023-04-08T16:35:20.230Z,11.7
2023-04-08T16:37:46.247Z,11.7
2023-04-08T16:40:12.253Z,11.6
2023-04-08T16:42:38.447Z,11.6
2023-04-08T16:45:04.471Z,11.6
2023-04-08T16:47:30.635Z,11.6
2023-04-08T16:49:56.752Z,11.5
2023-04-08T16:52:22.698Z,11.5
2023-04-08T16:54:48.840Z,11.5
2023-04-08T16:57:15.041Z,11.5
2023-04-08T16:59:40.180Z,11.4
2023-04-08T17:02:06.104Z,11.4
2023-04-08T17:04:32.241Z,11.4
2023-04-08T17:06:58.356Z,11.4
2023-04-08T17:09:24.536Z,11.4
2023-04-08T17:11:50.541Z,11.4
2023-04-08T17:14:16.572Z,11.3
2023-04-08T17:16:42.684Z,11.3
2023-04-08T17:19:08.781Z,11.3
2023-04-08T17:21:34.854Z,11.2
2023-04-08T17:24:00.963Z,11.2
2023-04-08T17:26:27.066Z,11.1
2023-04-08T17:28:53.153Z,11.1
2023-04-08T17:31:18.262Z,11.1
2023-04-08T17:33:44.362Z,11
2023-04-08T17:36:10.456Z,11
2023-04-08T17:38:36.565Z,11
2023-04-08T17:41:02.655Z,10.9
2023-04-08T17:43:28.745Z,10.9
2023-04-08T17:48:20.941Z,10.8
2023-04-08T17:50:47.026Z,10.8
2023-04-08T17:53:13.133Z,10.7
2023-04-08T17:55:39.257Z,10.7
2023-04-08T17:58:05.330Z,10.7
2023-04-08T18:00:31.397Z,10.6
2023-04-08T18:02:56.523Z,10.6
2023-04-08T18:05:22.630Z,10.6
2023-04-08T18:07:48.713Z,10.5
2023-04-08T18:10:14.804Z,10.5
2023-04-08T18:12:40.906Z,10.5
2023-04-08T18:15:07.012Z,10.5
2023-04-08T18:17:33.129Z,10.4
2023-04-08T18:19:59.198Z,10.4
2023-04-08T18:22:25.281Z,10.4
2023-04-08T18:24:51.384Z,10.3
2023-04-08T18:27:17.459Z,10.3
2023-04-08T18:29:43.575Z,10.3
2023-04-08T18:32:09.671Z,10.3
2023-04-08T18:34:34.785Z,10.3
2023-04-08T18:37:00.891Z,10.2
2023-04-08T18:39:26.974Z,10.2
2023-04-08T18:41:53.058Z,10.2
2023-04-08T18:44:19.212Z,10.2
2023-04-08T18:46:45.252Z,10.2
2023-04-08T18:49:11.364Z,10.1
2023-04-08T18:51:37.445Z,10.1
2023-04-08T18:54:03.547Z,10.1
2023-04-08T18:56:29.626Z,10
2023-04-08T18:58:55.735Z,10
2023-04-08T19:01:21.831Z,10
2023-04-08T19:03:47.924Z,9.9
2023-04-08T19:06:13.023Z,9.9
2023-04-08T19:08:39.128Z,9.9
2023-04-08T19:11:05.224Z,9.9
2023-04-08T19:13:31.318Z,9.9
2023-04-08T19:15:57.406Z,9.8
2023-04-08T19:18:23.530Z,9.8
2023-04-08T19:20:48.627Z,9.8
2023-04-08T19:23:14.726Z,9.8
2023-04-08T19:25:40.820Z,9.8
2023-04-08T19:28:06.927Z,9.7
2023-04-08T19:30:33.009Z,9.7
2023-04-08T19:32:59.220Z,9.7
2023-04-08T19:35:25.200Z,9.7
2023-04-08T19:37:51.305Z,9.7
2023-04-08T19:40:17.395Z,9.6
2023-04-08T19:42:43.488Z,9.6
2023-04-08T19:45:09.574Z,9.6
2023-04-08T19:47:35.686Z,9.6
2023-04-08T19:50:01.759Z,9.6
2023-04-08T19:52:26.881Z,9.5
2023-04-08T19:54:53.003Z,9.5
2023-04-08T19:57:19.090Z,9.5
2023-04-08T19:59:45.164Z,9.5
2023-04-08T20:02:11.262Z,9.5
2023-04-08T20:04:37.349Z,9.4
2023-04-08T20:07:03.461Z,9.4
2023-04-08T20:09:29.557Z,9.4
2023-04-08T20:14:22.088Z,9.3
2023-04-08T20:16:47.853Z,9.3
2023-04-08T20:19:13.960Z,9.3
2023-04-08T20:21:40.057Z,9.2
2023-04-08T20:24:05.143Z,9.2
2023-04-08T20:26:31.233Z,9.2
2023-04-08T20:28:57.351Z,9.2
2023-04-08T20:31:23.426Z,9.1
2023-04-08T20:33:49.551Z,9.1
2023-04-08T20:36:15.644Z,9.1
2023-04-08T20:38:41.727Z,9.1
2023-04-08T20:41:07.825Z,9
2023-04-08T20:43:33.915Z,9
2023-04-08T20:46:00.018Z,9
2023-04-08T20:48:26.114Z,9
2023-04-08T20:50:52.217Z,9
2023-04-08T20:53:18.294Z,8.9
2023-04-08T20:55:43.424Z,8.9
2023-04-08T20:58:09.512Z,8.9
2023-04-08T21:00:35.602Z,8.9
2023-04-08T21:03:01.699Z,8.9
2023-04-08T21:05:27.838Z,8.9
2023-04-08T21:07:53.907Z,8.8
2023-04-08T21:12:46.099Z,8.8
2023-04-08T21:15:12.178Z,8.8
2023-04-08T21:17:38.276Z,8.8
2023-04-08T21:20:04.387Z,8.8
2023-04-08T21:22:30.477Z,8.8
2023-04-08T21:24:56.574Z,8.7
2023-04-08T21:27:21.673Z,8.7
2023-04-08T21:29:47.783Z,8.7
2023-04-08T21:32:13.863Z,8.7
2023-04-08T21:34:39.972Z,8.7
2023-04-08T21:37:06.065Z,8.7
2023-04-08T21:39:32.178Z,8.7
2023-04-08T21:41:58.237Z,8.7
2023-04-08T21:44:24.338Z,8.7
2023-04-08T21:46:50.511Z,8.6
2023-04-08T21:49:16.542Z,8.6
2023-04-08T21:51:42.626Z,8.6
2023-04-08T21:54:08.720Z,8.6
2023-04-08T21:56:34.829Z,8.6
2023-04-08T21:58:59.924Z,8.6
2023-04-08T22:01:26.028Z,8.6
2023-04-08T22:03:52.120Z,8.6
2023-04-08T22:06:18.214Z,8.6
2023-04-08T22:08:44.300Z,8.6
2023-04-08T22:11:10.420Z,8.6
2023-04-08T22:13:36.508Z,8.5
2023-04-08T22:16:02.612Z,8.5
2023-04-08T22:18:28.713Z,8.5
2023-04-08T22:20:54.811Z,8.5
2023-04-08T22:23:20.898Z,8.5
2023-04-08T22:25:46.974Z,8.5
2023-04-08T22:28:13.078Z,8.5
2023-04-08T22:30:38.193Z,8.5
2023-04-08T22:33:04.294Z,8.5
2023-04-08T22:35:30.399Z,8.5
2023-04-08T22:37:56.493Z,8.5
2023-04-08T22:40:22.575Z,8.4
2023-04-08T22:42:48.687Z,8.4
2023-04-08T22:45:14.777Z,8.4
2023-04-08T22:47:40.856Z,8.4
2023-04-08T22:50:06.961Z,8.4
2023-04-08T22:52:33.067Z,8.4
2023-04-08T22:54:59.154Z,8.4
2023-04-08T22:57:25.295Z,8.3
2023-04-08T22:59:51.357Z,8.3
2023-04-08T23:02:16.501Z,8.3
2023-04-08T23:04:42.563Z,8.3
2023-04-08T23:07:08.667Z,8.3
2023-04-08T23:09:34.755Z,8.3
2023-04-08T23:12:00.859Z,8.3
2023-04-08T23:14:26.945Z,8.3
2023-04-08T23:16:53.102Z,8.3
2023-04-08T23:19:19.126Z,8.3
2023-04-08T23:21:45.298Z,8.3
2023-04-08T23:24:11.329Z,8.3
2023-04-08T23:26:37.417Z,8.3
2023-04-08T23:29:03.508Z,8.2
2023-04-08T23:31:29.613Z,8.2
2023-04-08T23:33:54.725Z,8.2
2023-04-08T23:36:20.811Z,8.2
2023-04-08T23:38:46.940Z,8.2
2023-04-08T23:41:13.020Z,8.2
2023-04-08T23:43:39.117Z,8.2
2023-04-08T23:46:05.210Z,8.2
2023-04-08T23:48:31.292Z,8.2
2023-04-08T23:50:57.387Z,8.2
2023-04-08T23:53:23.544Z,8.1
2023-04-08T23:55:49.581Z,8.1
2023-04-08T23:58:15.696Z,8.1
